createdAt,value
2022-12-01T08:40:08.735Z,101679.66
2022-12-01T08:42:14.292Z,101678.45
2022-12-01T08:44:19.499Z,101677.7
2022-12-01T08:46:24.985Z,101680.66
2022-12-01T08:48:30.461Z,101674.55
2022-12-01T08:50:36.124Z,101668.72
2022-12-01T08:52:41.997Z,101673.77
2022-12-01T08:54:47.240Z,101669.2
2022-12-01T08:56:52.599Z,101668.66
2022-12-01T08:58:57.872Z,101669.95
2022-12-01T09:01:03.589Z,101665.3
2022-12-01T09:03:09.290Z,101669.93
2022-12-01T09:05:14.797Z,101668.45
2022-12-01T09:07:27.281Z,101669.47
2022-12-01T09:09:33.852Z,101670.2
2022-12-01T09:11:39.402Z,101667.16
2022-12-01T09:13:53.089Z,101665.16
2022-12-01T09:16:00.009Z,101666.38
2022-12-01T09:18:05.727Z,101662.34
2022-12-01T09:20:11.306Z,101661.91
2022-12-01T09:22:16.954Z,101661.95
2022-12-01T09:24:26.495Z,101659.39
2022-12-01T09:26:31.998Z,101655.36
2022-12-01T09:28:37.283Z,101658.83
2022-12-01T09:30:43.103Z,101655.73
2022-12-01T09:32:49.919Z,101651.44
2022-12-01T09:34:59.648Z,101651.42
2022-12-01T09:37:06.785Z,101652.68
2022-12-01T09:39:15.876Z,101655.59
2022-12-01T09:41:21.171Z,101647.3
2022-12-01T09:43:26.554Z,101645.23
2022-12-01T09:45:34.093Z,101641.08
2022-12-01T09:47:39.406Z,101641.22
2022-12-01T09:49:44.940Z,101642.69
2022-12-01T09:51:51.175Z,101640.41
2022-12-01T09:53:58.204Z,101637.33
2022-12-01T09:56:13.002Z,101641.03
2022-12-01T09:58:18.530Z,101640.95
2022-12-01T10:00:25.310Z,101633.95
2022-12-01T10:02:31.147Z,101638.35
2022-12-01T10:04:36.543Z,101632.18
2022-12-01T10:06:41.981Z,101633.79
2022-12-01T10:08:52.833Z,101631.06
2022-12-01T10:10:58.617Z,101629.06
2022-12-01T10:13:04.886Z,101631.48
2022-12-01T10:15:10.121Z,101632.79
2022-12-01T10:17:15.235Z,101630.43
2022-12-01T10:19:22.008Z,101628.27
2022-12-01T10:21:27.266Z,101628.53
2022-12-01T10:23:34.242Z,101627.98
2022-12-01T10:25:40.940Z,101629.06
2022-12-01T10:27:46.381Z,101625.7
2022-12-01T10:29:53.437Z,101628.94
2022-12-01T10:31:59.328Z,101627.06
2022-12-01T10:34:05.395Z,101619.95
2022-12-01T10:36:15.344Z,101617.44
2022-12-01T10:38:20.833Z,101616.16
2022-12-01T10:40:27.928Z,101611.5
2022-12-01T10:42:35.540Z,101610.58
2022-12-01T10:44:52.192Z,101612.36
2022-12-01T10:46:57.517Z,101610.31
2022-12-01T10:49:04.780Z,101605.05
2022-12-01T10:51:14.821Z,101604.67
2022-12-01T10:53:22.272Z,101606.33
2022-12-01T10:55:34.645Z,101603.72
2022-12-01T10:57:39.932Z,101598.41
2022-12-01T10:59:49.708Z,101596.95
2022-12-01T11:01:56.817Z,101593.36
2022-12-01T11:04:03.188Z,101598.24
2022-12-01T11:06:08.537Z,101598.75
2022-12-01T11:08:17.710Z,101595.39
2022-12-01T11:10:23.268Z,101593.73
2022-12-01T11:12:28.394Z,101593.73
2022-12-01T11:14:33.614Z,101596.22
2022-12-01T11:16:39.095Z,101594.34
2022-12-01T11:18:44.669Z,101593.07
2022-12-01T11:20:50.639Z,101590.97
2022-12-01T11:22:59.504Z,101592.64
2022-12-01T11:25:04.888Z,101592.22
2022-12-01T11:27:10.532Z,101594.68
2022-12-01T11:29:16.992Z,101592.88
2022-12-01T11:31:22.290Z,101588.73
2022-12-01T11:33:29.511Z,101590.08
2022-12-01T11:35:34.801Z,101590.55
2022-12-01T11:38:27.517Z,101587.98
2022-12-01T12:17:51.419Z,101573.73
2022-12-01T12:20:14.549Z,101576.4
2022-12-01T12:22:21.726Z,101574.73
2022-12-01T12:24:30.837Z,101570
2022-12-01T12:26:36.365Z,101569.81
2022-12-01T12:28:42.301Z,101569.56
2022-12-01T12:30:47.965Z,101573.09
2022-12-01T12:32:54.599Z,101568
2022-12-01T12:35:00.741Z,101571
2022-12-01T12:37:07.391Z,101570.3
2022-12-01T12:39:18.149Z,101569.91
2022-12-01T12:41:25.628Z,101573.85
2022-12-01T12:43:30.917Z,101571.71
2022-12-01T12:45:36.899Z,101573.44
2022-12-01T12:47:44.541Z,101567
2022-12-01T12:49:50.996Z,101569.38
2022-12-01T12:51:57.611Z,101565.66
2022-12-01T12:54:12.103Z,101564.56
2022-12-01T12:56:18.069Z,101564.47
2022-12-01T12:58:23.644Z,101567.09
2022-12-01T13:00:29.585Z,101563.89
2022-12-01T13:02:35.599Z,101561.47
2022-12-01T13:04:40.983Z,101562.28
2022-12-01T13:06:46.416Z,101559.91
2022-12-01T13:08:51.800Z,101563.45
2022-12-01T13:11:00.948Z,101560.08
2022-12-01T13:13:06.536Z,101561.36
2022-12-01T13:15:15.286Z,101558.38
2022-12-01T13:17:21.003Z,101558.58
2022-12-01T13:19:27.026Z,101559.86
2022-12-01T13:21:33.999Z,101555.91
2022-12-01T13:23:40.978Z,101556.2
2022-12-01T13:26:01.154Z,101557.44
2022-12-01T13:28:07.435Z,101559.77
2022-12-01T13:30:12.975Z,101563.59
2022-12-01T13:32:18.457Z,101563.41
2022-12-01T13:34:30.945Z,101567.86
2022-12-01T13:36:51.499Z,101565.45
2022-12-01T13:39:00.517Z,101565.66
2022-12-01T13:41:05.937Z,101570.65
2022-12-01T13:43:12.508Z,101568.98
2022-12-01T13:45:19.086Z,101564.34
2022-12-01T13:47:24.367Z,101565.12
2022-12-01T13:49:34.823Z,101563.53
2022-12-01T13:51:56.038Z,101565.17
2022-12-01T13:54:01.683Z,101564.41
2022-12-01T13:56:07.187Z,101566.11
2022-12-01T13:58:13.151Z,101566.53
2022-12-01T14:00:18.678Z,101561.07
2022-12-01T14:02:28.404Z,101568.42
2022-12-01T14:04:35.283Z,101566.28
2022-12-01T14:06:41.994Z,101566.52
2022-12-01T14:09:01.910Z,101565.46
2022-12-01T14:11:08.452Z,101567.44
2022-12-01T14:13:15.716Z,101569.55
2022-12-01T14:15:21.115Z,101568.71
2022-12-01T14:17:26.688Z,101571.95
2022-12-01T14:19:32.438Z,101571.41
2022-12-01T14:21:52.677Z,101573.59
2022-12-01T14:23:58.941Z,101574.55
2022-12-01T14:26:18.880Z,101578.42
2022-12-01T14:28:28.269Z,101577.58
2022-12-01T14:30:37.869Z,101575.83
2022-12-01T14:32:46.801Z,101572.46
2022-12-01T14:34:52.560Z,101574.84
2022-12-01T14:37:18.486Z,101574.92
2022-12-01T14:39:24.218Z,101575.8
2022-12-01T14:41:31.381Z,101577.77
2022-12-01T14:43:36.698Z,101573.97
2022-12-01T14:45:42.165Z,101571.04
2022-12-01T14:47:47.515Z,101572.44
2022-12-01T14:49:52.900Z,101572.05
2022-12-01T14:52:01.229Z,101570.92
2022-12-01T14:54:07.227Z,101568.88
2022-12-01T14:56:13.202Z,101566.81
2022-12-01T14:58:18.707Z,101565.38
2022-12-01T15:00:24.457Z,101566.39
2022-12-01T15:02:31.286Z,101564.56
2022-12-01T15:04:37.065Z,101570.36
2022-12-01T15:06:42.908Z,101568.59
2022-12-01T15:09:35.571Z,101566.77
2022-12-01T15:11:43.776Z,101563.52
2022-12-01T15:13:51.647Z,101562.32
2022-12-01T15:16:11.742Z,101564.52
2022-12-01T15:18:17.885Z,101563.01
2022-12-01T15:20:23.732Z,101562.91
2022-12-01T15:22:44.373Z,101565.09
2022-12-01T15:24:51.360Z,101566.09
2022-12-01T15:27:04.991Z,101566.69
2022-12-01T15:29:12.184Z,101565.86
2022-12-01T15:31:17.837Z,101571.24
2022-12-01T15:33:34.125Z,101568.3
2022-12-01T15:35:43.253Z,101565.45
2022-12-01T15:37:49.985Z,101567.59
2022-12-01T15:43:37.655Z,101567.59
2022-12-01T15:45:44.234Z,101574.23
2022-12-01T15:48:04.907Z,101571.2
2022-12-01T15:50:11.391Z,101576.16
2022-12-01T15:52:17.020Z,101573.96
2022-12-01T15:54:23.512Z,101574.66
2022-12-01T15:56:31.474Z,101571.08
2022-12-01T15:58:37.315Z,101569.09
2022-12-01T16:01:02.254Z,101565.91
2022-12-01T16:03:13.710Z,101571.97
2022-12-01T16:05:22.116Z,101570.84
2022-12-01T16:07:44.291Z,101574.9
2022-12-01T16:10:18.979Z,101573.02
2022-12-01T16:12:26.520Z,101577.52
2022-12-01T16:14:47.178Z,101577.72
2022-12-01T16:16:55.314Z,101581.73
2022-12-01T16:19:01.069Z,101581.41
2022-12-01T16:21:07.915Z,101580.36
2022-12-01T16:23:13.980Z,101585.02
2022-12-01T16:25:20.125Z,101583.52
2022-12-01T16:27:25.766Z,101584.59
2022-12-01T16:29:31.824Z,101585.44
2022-12-01T16:32:19.655Z,101585.68
2022-12-01T16:34:58.697Z,101578.66
2022-12-01T16:37:06.141Z,101577.63
2022-12-01T16:39:29.575Z,101579.32
2022-12-01T16:41:39.833Z,101578.89
2022-12-01T16:44:27.389Z,101582.47
2022-12-01T16:46:35.237Z,101581.62
2022-12-01T16:48:43.456Z,101580.17
2022-12-01T16:50:49.837Z,101581.25
2022-12-01T16:53:01.469Z,101582.31
2022-12-01T16:55:09.627Z,101582.28
2022-12-01T16:57:20.683Z,101584.06
2022-12-01T16:59:27.300Z,101575.47
2022-12-01T17:01:38.607Z,101577.09
2022-12-01T17:04:07.350Z,101580.3
2022-12-01T17:06:17.073Z,101579.55
2022-12-01T17:08:24.574Z,101580.77
2022-12-01T17:10:31.876Z,101580.19
2022-12-01T17:12:42.668Z,101577.11
2022-12-01T17:14:51.235Z,101574.27
2022-12-01T17:17:01.897Z,101573.76
2022-12-01T17:19:10.985Z,101572.31
2022-12-01T17:21:17.644Z,101573.23
2022-12-01T17:23:30.869Z,101574.03
2022-12-01T17:25:41.166Z,101571.31
2022-12-01T17:27:49.440Z,101572.98
2022-12-01T17:29:56.031Z,101574.72
2022-12-01T17:32:04.633Z,101568.16
2022-12-01T17:34:12.379Z,101569.05
2022-12-01T17:36:20.681Z,101572.88
2022-12-01T17:38:28.530Z,101568.77
2022-12-01T17:40:34.682Z,101572.31
2022-12-01T17:42:41.575Z,101570.13
2022-12-01T17:44:55.193Z,101570.06
2022-12-01T17:47:01.471Z,101570.41
2022-12-01T17:49:09.827Z,101574.58
2022-12-01T17:51:17.392Z,101568.45
2022-12-01T17:53:34.203Z,101568.66
2022-12-01T17:55:45.883Z,101568.42
2022-12-01T17:57:52.918Z,101565.63
2022-12-01T18:00:01.000Z,101568.95
2022-12-01T18:02:07.506Z,101568.4
2022-12-01T18:04:14.202Z,101567.26
2022-12-01T18:06:23.668Z,101564.77
2022-12-01T18:08:30.941Z,101569.48
2022-12-01T18:10:37.460Z,101562.54
2022-12-01T18:12:47.071Z,101559.44
2022-12-01T18:14:56.209Z,101566.4
2022-12-01T18:17:04.133Z,101559.54
2022-12-01T18:19:17.399Z,101560.56
2022-12-01T18:21:28.431Z,101559.86
2022-12-01T18:23:40.307Z,101557.83
2022-12-01T18:25:46.668Z,101558.7
2022-12-01T18:28:09.643Z,101558.84
2022-12-01T18:30:17.818Z,101556.67
2022-12-01T18:32:28.961Z,101559.3
2022-12-01T18:34:50.994Z,101558.88
2022-12-01T18:37:00.822Z,101557.82
2022-12-01T18:39:08.441Z,101553.28
2022-12-01T18:41:15.672Z,101558.44
2022-12-01T18:43:22.891Z,101561.06
2022-12-01T18:45:32.922Z,101558.3
2022-12-01T18:47:43.488Z,101560.54
2022-12-01T18:49:54.748Z,101556.81
2022-12-01T18:52:16.312Z,101557.85
2022-12-01T18:54:23.320Z,101559.78
2022-12-01T18:56:30.393Z,101559.66
2022-12-01T18:58:40.697Z,101562.06
2022-12-01T19:00:51.170Z,101565.4
2022-12-01T19:03:00.977Z,101559.23
2022-12-01T19:05:13.169Z,101559.26
2022-12-01T19:07:22.927Z,101558.59
2022-12-01T19:09:37.175Z,101562.94
2022-12-01T19:11:44.886Z,101561.88
2022-12-01T19:13:57.642Z,101560.56
2022-12-01T19:16:08.808Z,101566.72
2022-12-01T19:18:17.572Z,101569.27
2022-12-01T19:20:25.751Z,101567.28
2022-12-01T19:22:33.066Z,101567.91
2022-12-01T19:24:44.814Z,101565.94
2022-12-01T19:26:59.042Z,101566.7
2022-12-01T19:29:07.934Z,101573.17
2022-12-01T19:31:16.146Z,101567.28
2022-12-01T19:33:26.808Z,101567.25
2022-12-01T19:35:36.596Z,101569.42
2022-12-01T19:37:48.837Z,101564.52
2022-12-01T19:39:58.630Z,101564.25
2022-12-01T19:42:09.332Z,101569.23
2022-12-01T19:44:38.778Z,101570.11
2022-12-01T19:46:51.198Z,101568.23
2022-12-01T19:49:11.997Z,101572.66
2022-12-01T19:51:22.122Z,101567.74
2022-12-01T19:53:36.873Z,101563.07
2022-12-01T19:55:44.676Z,101565.61
2022-12-01T19:57:53.578Z,101561.68
2022-12-01T20:00:04.759Z,101565.32
2022-12-01T20:02:14.809Z,101565.41
2022-12-01T20:04:26.583Z,101568.59
2022-12-01T20:06:38.036Z,101569.55
2022-12-01T20:08:49.777Z,101570.94
2022-12-01T20:10:58.862Z,101570.17
2022-12-01T20:13:06.556Z,101567.34
2022-12-01T20:15:16.757Z,101563.42
2022-12-01T20:17:35.211Z,101565.78
2022-12-01T20:19:45.812Z,101567.2
2022-12-01T20:21:53.624Z,101569.32
2022-12-01T20:24:01.215Z,101571.89
2022-12-01T20:26:08.773Z,101570.88
2022-12-01T20:28:17.077Z,101572.23
2022-12-01T20:30:24.650Z,101567.47
2022-12-01T20:32:32.177Z,101566.24
2022-12-01T20:34:39.918Z,101568.35
2022-12-01T20:36:50.759Z,101568.45
2022-12-01T20:39:08.262Z,101566.72
2022-12-01T20:41:16.422Z,101562.94
2022-12-01T20:43:25.604Z,101563.81
2022-12-01T20:45:49.901Z,101564.19
2022-12-01T20:48:00.556Z,101566.41
2022-12-01T20:50:17.308Z,101565.75
2022-12-01T20:52:27.641Z,101569.17
2022-12-01T20:54:35.261Z,101567.58
2022-12-01T20:56:41.673Z,101569.45
2022-12-01T20:58:55.432Z,101567.69
2022-12-01T21:01:06.350Z,101567.8
2022-12-01T21:03:14.289Z,101566.81
2022-12-01T21:05:20.176Z,101567.46
2022-12-01T21:07:29.557Z,101564.15
2022-12-01T21:09:35.377Z,101565.16
2022-12-01T21:11:44.365Z,101568.59
2022-12-01T21:13:50.806Z,101569.41
2022-12-01T21:16:08.284Z,101564.86
2022-12-01T21:18:19.025Z,101563.52
2022-12-01T21:20:25.121Z,101562.14
2022-12-01T21:22:30.591Z,101563.05
2022-12-01T21:24:44.064Z,101560.08
2022-12-01T21:26:49.716Z,101563.26
2022-12-01T21:28:55.221Z,101563.64
2022-12-01T21:31:02.623Z,101565.47
2022-12-01T21:33:08.765Z,101562.3
2022-12-01T21:35:14.400Z,101565.27
2022-12-01T21:37:20.129Z,101561.66
2022-12-01T21:39:25.707Z,101567.13
2022-12-01T21:41:31.308Z,101565.04
2022-12-01T21:43:39.870Z,101561.5
2022-12-01T21:45:45.578Z,101561.8
2022-12-01T21:47:51.251Z,101560.61
2022-12-01T21:49:56.807Z,101558.1
2022-12-01T21:52:04.418Z,101556.56
2022-12-01T21:54:09.722Z,101557.14
2022-12-01T21:56:15.104Z,101558.16
2022-12-01T21:58:20.233Z,101563.16
2022-12-01T22:00:25.933Z,101561.34
2022-12-01T22:02:32.511Z,101559.2
2022-12-01T22:04:38.254Z,101560.73
2022-12-01T22:06:45.877Z,101556.52
2022-12-01T22:08:51.197Z,101559.73
2022-12-01T22:11:00.090Z,101558.06
2022-12-01T22:13:05.299Z,101557.63
2022-12-01T22:15:10.669Z,101553.91
2022-12-01T22:17:16.138Z,101553.5
2022-12-01T22:19:23.630Z,101549.44
2022-12-01T22:21:43.976Z,101548.69
2022-12-01T22:23:49.268Z,101546.48
2022-12-01T22:25:54.528Z,101549.83
2022-12-01T22:27:59.909Z,101545.66
2022-12-01T22:30:06.518Z,101548.41
2022-12-01T22:32:12.973Z,101551.39
2022-12-01T22:34:18.331Z,101546.84
2022-12-01T22:36:24.470Z,101544.95
2022-12-01T22:38:44.928Z,101542.16
2022-12-01T22:40:50.494Z,101542.8
2022-12-01T22:42:55.931Z,101541.34
2022-12-01T22:45:01.414Z,101535.64
2022-12-01T22:47:06.975Z,101537.7
2022-12-01T22:49:13.199Z,101538.65
2022-12-01T22:51:18.663Z,101537.38
2022-12-01T22:53:25.154Z,101536.39
2022-12-01T22:55:30.404Z,101532.77
2022-12-01T22:57:37.940Z,101531.38
2022-12-01T22:59:43.381Z,101532.78
2022-12-01T23:01:50.913Z,101533.72
2022-12-01T23:04:10.985Z,101531.25
2022-12-01T23:06:20.106Z,101533.37
2022-12-01T23:08:25.261Z,101533.84
2022-12-01T23:10:30.700Z,101535.94
2022-12-01T23:12:36.033Z,101533.83
2022-12-01T23:14:44.044Z,101530.17
2022-12-01T23:16:50.493Z,101529.38
2022-12-01T23:18:55.815Z,101530.7
2022-12-01T23:21:01.178Z,101527.13
2022-12-01T23:23:06.618Z,101524.78
2022-12-01T23:25:12.062Z,101530.59
2022-12-01T23:27:21.025Z,101527.95
2022-12-01T23:29:26.460Z,101529.01
2022-12-01T23:31:31.863Z,101533.8
2022-12-01T23:33:37.259Z,101533.93
2022-12-01T23:35:42.796Z,101538.53
2022-12-01T23:37:48.172Z,101538.16
2022-12-01T23:39:53.573Z,101536.85
2022-12-01T23:41:58.988Z,101540.02
2022-12-01T23:44:04.516Z,101538.72
2022-12-01T23:46:09.904Z,101533.97
2022-12-01T23:48:15.546Z,101534.33
2022-12-01T23:50:21.951Z,101532.79
2022-12-01T23:52:27.289Z,101537.47
2022-12-01T23:54:32.462Z,101530.98
2022-12-01T23:56:37.851Z,101532.42
2022-12-01T23:58:42.888Z,101533.8
